Time;durP1;ratioP1;P1;durP2;ratioP2;P2;SDS_P1;SDS_P2;PMS_P1;PMS_P2;Temp;Humidity;BMP_temperature;BMP_pressure;BME280_temperature;BME280_humidity;BME280_pressure;Samples;Min_cycle;Max_cycle;Signal;HPM_P1;HPM_P2
2023/09/09 00:05:41;;;;;;;7.10;5.57;;;;;;;18.06;100.00;97835.03;18569880;31;20080;-56
2023/09/09 00:15:43;;;;;;;6.55;5.45;;;;;;;17.96;100.00;97836.13;18569702;32;20389;-56
2023/09/09 00:25:46;;;;;;;5.87;5.25;;;;;;;17.88;100.00;97834.94;18568974;32;20064;-56
2023/09/09 00:35:48;;;;;;;7.63;4.77;;;;;;;17.79;100.00;97842.28;18568140;32;20056;-57
2023/09/09 00:45:51;;;;;;;7.28;4.95;;;;;;;17.71;100.00;97841.09;18567516;32;20071;-58
2023/09/09 00:55:54;;;;;;;8.00;4.70;;;;;;;17.66;100.00;97838.50;18553205;32;20107;-56
2023/09/09 01:05:57;;;;;;;5.90;4.67;;;;;;;17.56;100.00;97836.03;18566144;32;20048;-57
2023/09/09 01:15:59;;;;;;;9.40;4.63;;;;;;;17.46;100.00;97837.09;18565724;32;20048;-56
2023/09/09 01:26:02;;;;;;;6.35;4.35;;;;;;;17.39;100.00;97848.47;18565201;32;20077;-56
2023/09/09 01:36:05;;;;;;;5.87;4.27;;;;;;;17.33;100.00;97844.22;18564622;32;20069;-56
2023/09/09 01:46:09;;;;;;;5.12;4.43;;;;;;;17.30;100.00;97846.78;18563867;32;20111;-56
2023/09/09 01:56:12;;;;;;;5.85;4.80;;;;;;;17.22;100.00;97845.59;18549212;31;20383;-56
2023/09/09 02:06:14;;;;;;;7.40;5.00;;;;;;;17.21;100.00;97842.06;18562065;32;20069;-55
2023/09/09 02:16:17;;;;;;;5.10;4.32;;;;;;;17.17;100.00;97841.06;18548205;32;20531;-56
2023/09/09 02:26:19;;;;;;;5.82;4.87;;;;;;;17.17;100.00;97846.53;18561553;32;20073;-56
2023/09/09 02:36:21;;;;;;;6.45;5.43;;;;;;;17.15;100.00;97845.22;18560904;32;20369;-56
2023/09/09 02:46:24;;;;;;;7.45;4.72;;;;;;;17.09;100.00;97836.34;18561324;32;20061;-56
2023/09/09 02:56:26;;;;;;;6.10;4.53;;;;;;;17.00;100.00;97835.44;18560733;32;20074;-56
2023/09/09 03:06:28;;;;;;;6.90;5.18;;;;;;;16.92;100.00;97839.72;18560230;32;20068;-56
2023/09/09 03:16:31;;;;;;;6.78;5.03;;;;;;;16.90;100.00;97831.81;18570677;32;20083;-56
2023/09/09 03:26:33;;;;;;;7.00;5.22;;;;;;;16.89;100.00;97822.00;18558033;32;20053;-56
2023/09/09 03:36:35;;;;;;;8.38;4.70;;;;;;;16.80;100.00;97823.84;18557428;32;20101;-56
2023/09/09 03:46:38;;;;;;;6.25;5.03;;;;;;;16.70;100.00;97819.38;18571147;31;20057;-56
2023/09/09 03:56:40;;;;;;;6.22;5.07;;;;;;;16.61;100.00;97829.44;18570737;32;20044;-55
2023/09/09 04:06:42;;;;;;;6.55;4.97;;;;;;;16.52;100.00;97820.34;18556122;32;20091;-55
2023/09/09 04:16:45;;;;;;;6.60;5.45;;;;;;;16.46;100.00;97827.00;18555297;32;20364;-56
2023/09/09 04:26:47;;;;;;;5.20;4.50;;;;;;;16.40;100.00;97821.69;18568060;32;20064;-55
2023/09/09 04:36:50;;;;;;;5.72;4.60;;;;;;;16.29;100.00;97825.69;18568171;32;20330;-56
2023/09/09 04:46:52;;;;;;;8.55;5.97;;;;;;;16.21;100.00;97829.97;18567867;32;20470;-56
2023/09/09 04:56:55;;;;;;;6.57;5.35;;;;;;;16.12;100.00;97829.03;18567230;32;20100;-56
2023/09/09 05:06:58;;;;;;;6.50;4.50;;;;;;;16.05;100.00;97831.38;18566921;32;20057;-56
2023/09/09 05:17:00;;;;;;;5.45;4.87;;;;;;;16.02;100.00;97842.88;18565934;32;20044;-56
2023/09/09 05:27:03;;;;;;;9.30;5.07;;;;;;;16.02;100.00;97845.59;18565054;32;20104;-56
2023/09/09 05:37:05;;;;;;;6.40;5.22;;;;;;;16.00;100.00;97853.28;18550119;31;20052;-56
2023/09/09 05:47:08;;;;;;;5.95;4.97;;;;;;;16.03;100.00;97861.69;18549802;32;20069;-56
2023/09/09 05:57:11;;;;;;;6.05;5.15;;;;;;;16.13;100.00;97877.03;18549436;32;20428;-56
2023/09/09 06:07:14;;;;;;;7.47;5.80;;;;;;;16.30;100.00;97870.19;18548964;32;20108;-56
2023/09/09 06:17:17;;;;;;;5.85;5.25;;;;;;;16.54;100.00;97881.72;18548180;32;20072;-56
2023/09/09 06:27:19;;;;;;;8.38;5.22;;;;;;;16.78;100.00;97888.88;18561538;31;20082;-56
2023/09/09 06:37:23;;;;;;;6.60;4.97;;;;;;;17.06;100.00;97894.28;18547283;32;20045;-56
2023/09/09 06:47:26;;;;;;;4.95;4.45;;;;;;;17.38;100.00;97901.50;18560620;32;20079;-55
2023/09/09 06:57:28;;;;;;;5.00;4.12;;;;;;;17.75;100.00;97909.66;18560563;32;20398;-55
2023/09/09 07:07:31;;;;;;;4.95;4.15;;;;;;;18.13;100.00;97909.28;18560018;32;20441;-56
2023/09/09 07:17:45;;;;;;;4.60;3.80;;;;;;;18.53;100.00;97924.94;18533708;32;20083;-56
2023/09/09 07:27:48;;;;;;;6.68;4.05;;;;;;;18.90;100.00;97928.31;18559834;32;20060;-56
2023/09/09 07:37:51;;;;;;;5.73;4.57;;;;;;;19.25;100.00;97931.91;18545088;32;20105;-57
2023/09/09 07:47:54;;;;;;;5.87;4.97;;;;;;;19.67;100.00;97933.38;18559207;32;20080;-56
2023/09/09 07:57:56;;;;;;;4.73;4.23;;;;;;;20.02;100.00;97923.19;18561886;32;20089;-57
2023/09/09 08:07:59;;;;;;;5.87;4.40;;;;;;;20.45;100.00;97926.94;18569961;32;20445;-57
2023/09/09 08:18:02;;;;;;;4.70;4.30;;;;;;;20.91;100.00;97930.81;18569852;31;20105;-57
2023/09/09 08:28:06;;;;;;;5.45;4.95;;;;;;;21.32;100.00;97936.69;18568830;32;20068;-57
2023/09/09 08:38:08;;;;;;;5.57;4.53;;;;;;;21.80;100.00;97937.31;18568139;32;20053;-57
2023/09/09 08:48:13;;;;;;;;;;;;;;;22.24;100.00;97932.19;18553695;32;20075;-57
2023/09/09 08:58:16;;;;;;;6.45;5.00;;;;;;;22.59;100.00;97915.25;18567504;32;19944;-57
2023/09/09 09:08:22;;;;;;;5.35;4.85;;;;;;;22.95;100.00;97924.66;18566238;32;20064;-57
2023/09/09 09:18:25;;;;;;;7.53;5.50;;;;;;;23.38;100.00;97932.69;18566333;32;20123;-57
2023/09/09 09:28:28;;;;;;;6.50;5.80;;;;;;;23.82;100.00;97932.78;18565319;32;20053;-57
2023/09/09 09:38:32;;;;;;;7.37;5.55;;;;;;;24.24;100.00;97937.88;18564451;32;20057;-57
2023/09/09 09:48:35;;;;;;;6.62;5.78;;;;;;;24.66;100.00;97934.66;18564063;32;20065;-57
2023/09/09 09:58:40;;;;;;;6.57;5.85;;;;;;;25.10;100.00;97928.19;18563167;32;20052;-57
2023/09/09 10:08:48;;;;;;;6.70;6.10;;;;;;;25.39;100.00;97916.97;18562666;32;20064;-57
2023/09/09 10:18:52;;;;;;;7.97;6.55;;;;;;;25.76;100.00;97920.09;18561690;32;20048;-57
2023/09/09 10:28:59;;;;;;;6.72;5.75;;;;;;;26.18;100.00;97924.12;18561823;32;20072;-57
2023/09/09 10:39:02;;;;;;;9.73;6.20;;;;;;;26.49;100.00;97914.78;18561306;32;20044;-57
2023/09/09 10:49:05;;;;;;;7.37;6.62;;;;;;;26.82;100.00;97912.53;18561057;32;20108;-57
2023/09/09 10:59:19;;;;;;;10.57;8.15;;;;;;;27.03;100.00;97907.31;18560298;32;20453;-57
2023/09/09 11:09:29;;;;;;;7.70;6.85;;;;;;;27.35;100.00;97895.88;18560220;32;20065;-57
2023/09/09 11:19:32;;;;;;;8.82;6.28;;;;;;;27.65;100.00;97891.50;18559829;32;20104;-57
2023/09/09 11:29:35;;;;;;;6.85;6.10;;;;;;;27.95;100.00;97901.75;18559928;32;20066;-57
2023/09/09 11:39:40;;;;;;;7.32;6.37;;;;;;;28.35;100.00;97895.41;18557660;31;20079;-57
2023/09/09 11:49:45;;;;;;;6.70;5.93;;;;;;;28.68;100.00;97885.44;18571325;31;20095;-57
2023/09/09 12:00:04;;;;;;;7.45;6.53;;;;;;;29.03;100.00;97872.13;18557892;32;20071;-57
2023/09/09 12:10:14;;;;;;;7.20;6.03;;;;;;;29.38;100.00;97881.87;18570690;32;20089;-58
2023/09/09 12:21:10;;;;;;;6.78;5.75;;;;;;;29.66;100.00;97869.28;18569518;32;20064;-58
2023/09/09 12:31:14;;;;;;;5.87;5.25;;;;;;;29.66;100.00;97869.28;18568988;32;20102;-58
2023/09/09 12:41:21;;;;;;;6.15;5.55;;;;;;;30.30;72.98;97862.25;18553435;32;20045;-58
2023/09/09 12:51:26;;;;;;;5.93;5.28;;;;;;;30.58;67.03;97869.84;18567447;32;20065;-58
2023/09/09 13:01:29;;;;;;;7.32;5.12;;;;;;;30.95;69.94;97857.44;18566931;32;20056;-58
2023/09/09 13:11:31;;;;;;;6.37;5.62;;;;;;;31.38;73.24;97860.16;18539607;32;20488;-58
2023/09/09 13:21:34;;;;;;;5.80;5.28;;;;;;;31.65;64.96;97870.81;18551300;32;20059;-58
2023/09/09 13:31:38;;;;;;;5.97;5.40;;;;;;;31.90;63.14;97858.72;18565151;32;20119;-58
2023/09/09 13:41:41;;;;;;;5.68;5.07;;;;;;;32.14;61.71;97847.75;18563838;32;20064;-58
2023/09/09 13:51:43;;;;;;;6.43;5.25;;;;;;;32.27;56.90;97837.72;18564031;32;20124;-58
2023/09/09 14:01:47;;;;;;;5.65;5.10;;;;;;;32.46;60.53;97843.97;18562681;32;20441;-58
2023/09/09 14:11:50;;;;;;;5.55;5.03;;;;;;;32.63;57.02;97840.22;18562859;32;20056;-58
2023/09/09 14:21:52;;;;;;;6.05;5.37;;;;;;;32.51;60.79;97833.12;18562015;32;20036;-57
2023/09/09 14:31:56;;;;;;;7.43;5.00;;;;;;;31.79;52.72;97825.22;18561848;31;20069;-57
2023/09/09 14:41:58;;;;;;;6.62;5.03;;;;;;;31.24;54.43;97807.13;18561002;32;20079;-57
2023/09/09 14:52:02;;;;;;;5.97;5.37;;;;;;;30.97;56.48;97807.56;18560913;32;20368;-57
2023/09/09 15:02:05;;;;;;;5.07;4.65;;;;;;;30.39;63.36;97816.00;18560622;32;20072;-57
2023/09/09 15:12:09;;;;;;;5.87;5.18;;;;;;;30.03;66.74;97810.44;18570921;32;20074;-58
2023/09/09 15:22:12;;;;;;;5.78;5.00;;;;;;;29.61;62.69;97803.56;18573196;32;20372;-57
2023/09/09 15:32:15;;;;;;;5.22;4.68;;;;;;;29.31;61.49;97798.31;18572529;32;20061;-57
2023/09/09 15:42:17;;;;;;;5.82;4.62;;;;;;;29.02;66.81;97793.38;18571654;32;20160;-58
2023/09/09 15:52:20;;;;;;;8.27;5.68;;;;;;;28.66;75.14;97797.97;18571749;32;20060;-57
2023/09/09 16:02:24;;;;;;;7.12;5.70;;;;;;;28.20;80.09;97793.63;18570654;32;20101;-57
2023/09/09 16:12:27;;;;;;;6.05;5.22;;;;;;;27.76;88.89;97797.97;18570293;32;20119;-57
2023/09/09 16:22:30;;;;;;;5.75;4.85;;;;;;;27.50;94.67;97790.53;18568241;31;20049;-57
2023/09/09 16:32:34;;;;;;;5.87;4.47;;;;;;;27.04;96.89;97792.38;18569432;32;20080;-57
2023/09/09 16:42:37;;;;;;;4.97;4.37;;;;;;;26.60;100.00;97789.34;18568318;32;20420;-56
2023/09/09 16:52:39;;;;;;;5.07;3.95;;;;;;;26.20;100.00;97785.97;18567863;32;20381;-56
2023/09/09 17:02:42;;;;;;;5.05;4.20;;;;;;;25.83;100.00;97786.50;18527065;32;20065;-56
2023/09/09 17:12:45;;;;;;;4.45;4.00;;;;;;;25.46;100.00;97792.56;18566482;32;20052;-56
2023/09/09 17:22:47;;;;;;;4.78;4.25;;;;;;;25.07;100.00;97792.56;18566187;32;20070;-56
2023/09/09 17:32:55;;;;;;;5.00;4.43;;;;;;;24.71;100.00;97792.59;18564925;32;20083;-56
2023/09/09 17:42:58;;;;;;;5.05;4.35;;;;;;;24.30;100.00;97801.09;18564409;32;20067;-56
2023/09/09 17:53:01;;;;;;;7.95;5.50;;;;;;;23.98;100.00;97816.84;18563910;32;20127;-56
2023/09/09 18:03:04;;;;;;;5.62;4.70;;;;;;;23.56;100.00;97815.34;18563202;32;20056;-57
2023/09/09 18:13:07;;;;;;;5.90;4.70;;;;;;;23.12;100.00;97812.53;18563097;31;20349;-55
2023/09/09 18:23:09;;;;;;;5.97;4.45;;;;;;;22.73;100.00;97812.13;18561971;32;20116;-56
2023/09/09 18:33:12;;;;;;;6.05;3.45;;;;;;;22.34;100.00;97818.03;18561787;32;20065;-56
2023/09/09 18:43:15;;;;;;;5.70;4.40;;;;;;;22.00;100.00;97825.53;18560548;32;20470;-57
2023/09/09 18:53:19;;;;;;;5.25;4.75;;;;;;;21.74;100.00;97836.84;18561005;32;20053;-56
2023/09/09 19:03:23;;;;;;;6.00;4.55;;;;;;;21.49;100.00;97847.72;18560795;32;20048;-55
2023/09/09 19:13:26;;;;;;;5.65;4.10;;;;;;;21.20;100.00;97848.62;18560761;32;20444;-57
2023/09/09 19:23:28;;;;;;;8.10;5.07;;;;;;;20.94;100.00;97853.19;18560033;32;20083;-56
2023/09/09 19:33:31;;;;;;;7.83;5.17;;;;;;;20.72;100.00;97858.97;18559611;32;20326;-56
2023/09/09 19:43:33;;;;;;;18.40;13.60;;;;;;;20.52;100.00;97866.00;18559218;32;20052;-56
2023/09/09 19:53:36;;;;;;;17.67;14.00;;;;;;;20.34;100.00;97873.50;18562942;32;20057;-56
2023/09/09 20:03:39;;;;;;;13.25;8.38;;;;;;;20.15;100.00;97877.47;18556515;32;20092;-56
2023/09/09 20:13:42;;;;;;;7.67;6.47;;;;;;;19.98;100.00;97878.34;18570165;32;20049;-56
2023/09/09 20:23:44;;;;;;;5.57;5.00;;;;;;;19.83;100.00;97885.13;18569933;32;20079;-56
2023/09/09 20:33:49;;;;;;;6.07;5.00;;;;;;;19.71;100.00;97887.72;18569147;32;20056;-56
2023/09/09 20:43:51;;;;;;;7.25;5.50;;;;;;;19.53;100.00;97890.47;18568047;32;20158;-56
2023/09/09 20:53:54;;;;;;;9.90;7.40;;;;;;;19.38;100.00;97901.94;18567934;32;20120;-55
2023/09/09 21:03:56;;;;;;;6.83;5.67;;;;;;;19.26;100.00;97894.34;18552098;32;20067;-56
2023/09/09 21:13:59;;;;;;;7.60;5.13;;;;;;;19.11;100.00;97896.41;18566550;32;20605;-55
2023/09/09 21:24:02;;;;;;;7.67;4.87;;;;;;;18.99;100.00;97898.97;18565758;32;20064;-54
2023/09/09 21:34:05;;;;;;;6.80;4.93;;;;;;;18.83;100.00;97904.09;18565413;32;20155;-55
2023/09/09 21:44:07;;;;;;;6.63;4.93;;;;;;;18.66;100.00;97906.75;18564704;31;20057;-56
2023/09/09 21:54:10;;;;;;;6.33;4.67;;;;;;;18.53;100.00;97908.50;18564061;32;20060;-56
2023/09/09 22:04:12;;;;;;;5.40;4.50;;;;;;;18.37;100.00;97899.91;18563362;32;20101;-56
2023/09/09 22:14:15;;;;;;;5.90;4.40;;;;;;;18.25;100.00;97904.03;18562241;32;20057;-56
2023/09/09 22:24:17;;;;;;;5.57;4.50;;;;;;;18.15;100.00;97898.81;18562115;32;20048;-57
2023/09/09 22:34:20;;;;;;;7.00;4.85;;;;;;;18.07;100.00;97902.31;18561694;32;20060;-56
2023/09/09 22:44:22;;;;;;;7.35;5.20;;;;;;;17.98;100.00;97902.28;18560843;32;20053;-55
2023/09/09 22:54:24;;;;;;;8.13;6.78;;;;;;;17.89;100.00;97904.13;18560770;32;20083;-57
2023/09/09 23:04:27;;;;;;;6.95;6.00;;;;;;;17.82;100.00;97910.03;18560639;32;20456;-56
2023/09/09 23:14:30;;;;;;;10.50;5.63;;;;;;;17.70;100.00;97924.25;18546403;32;20061;-56
2023/09/09 23:24:32;;;;;;;5.20;4.18;;;;;;;17.59;100.00;97915.50;18559764;32;20441;-56
2023/09/09 23:34:35;;;;;;;6.55;4.62;;;;;;;17.50;100.00;97930.22;18557087;32;20072;-56
2023/09/09 23:44:37;;;;;;;4.75;4.30;;;;;;;17.39;100.00;97926.91;18544810;32;20072;-55
2023/09/09 23:54:39;;;;;;;5.25;4.43;;;;;;;17.33;100.00;97928.16;18571383;32;20064;-56
